Time;durP1;ratioP1;P1;durP2;ratioP2;P2;SDS_P1;SDS_P2;PMS_P1;PMS_P2;Temp;Humidity;BMP_temperature;BMP_pressure;BME280_temperature;BME280_humidity;BME280_pressure;Samples;Min_cycle;Max_cycle;Signal;HPM_P1;HPM_P2
2022/02/01 00:00:32;;;;;;;18.02;2.95;;;;;;;1.99;100.00;101165.53;688736;28;3264;-49
2022/02/01 00:01:02;;;;;;;18.40;3.15;;;;;;;2.05;100.00;101167.47;689593;28;1298;-48
2022/02/01 00:01:29;;;;;;;18.83;3.63;;;;;;;2.06;100.00;101171.78;692662;28;5192;-52
2022/02/01 00:02:15;;;;;;;17.42;3.35;;;;;;;2.03;100.00;101175.13;692624;28;1340;-49
2022/02/01 00:02:44;;;;;;;18.25;3.25;;;;;;;2.04;100.00;101176.91;691681;28;1576;-50
2022/02/01 00:03:04;;;;;;;16.85;3.25;;;;;;;2.00;100.00;101177.59;691533;28;3308;-49
2022/02/01 00:03:30;;;;;;;15.68;3.30;;;;;;;2.03;100.00;101172.56;692071;28;1979;-49
2022/02/01 00:03:55;;;;;;;16.27;3.10;;;;;;;2.07;100.00;101175.28;690790;28;2308;-52
2022/02/01 00:04:30;;;;;;;16.23;3.00;;;;;;;2.06;100.00;101176.09;689545;28;6153;-50
2022/02/01 00:05:03;;;;;;;15.43;2.83;;;;;;;2.03;100.00;101166.53;691763;28;1332;-50
2022/02/01 00:05:34;;;;;;;18.52;3.65;;;;;;;2.02;100.00;101165.66;691379;28;1811;-48
2022/02/01 00:06:06;;;;;;;17.58;3.05;;;;;;;2.00;100.00;101169.88;688525;28;3894;-49
2022/02/01 00:07:38;;;;;;;15.68;3.17;;;;;;;2.06;100.00;101171.78;681741;28;4270;-52
2022/02/01 00:08:34;;;;;;;17.30;3.45;;;;;;;1.97;100.00;101172.34;689495;28;1385;-49
2022/02/01 00:09:14;;;;;;;17.92;3.00;;;;;;;1.95;100.00;101181.72;688958;28;3503;-50
2022/02/01 00:09:47;;;;;;;16.60;3.22;;;;;;;1.97;100.00;101176.63;692645;28;1223;-53
2022/02/01 00:10:18;;;;;;;18.10;3.38;;;;;;;1.90;100.00;101175.50;692370;28;4326;-53
2022/02/01 00:11:28;;;;;;;14.95;3.00;;;;;;;1.95;100.00;101168.84;687441;28;1109;-51
2022/02/01 00:13:02;;;;;;;17.35;3.38;;;;;;;1.75;100.00;101160.31;691106;28;1366;-49
2022/02/01 00:13:39;;;;;;;21.58;3.47;;;;;;;1.69;100.00;101167.81;690515;28;4934;-49
2022/02/01 00:14:14;;;;;;;17.25;3.33;;;;;;;1.69;100.00;101160.94;691525;28;1231;-50
2022/02/01 00:18:57;;;;;;;14.63;3.03;;;;;;;1.69;100.00;101167.81;689707;28;1287;-49
2022/02/01 00:20:11;;;;;;;19.23;3.13;;;;;;;1.80;100.00;101169.13;688589;28;3245;-51
2022/02/01 00:34:48;;;;;;;18.92;3.10;;;;;;;1.75;100.00;101195.53;691052;28;4419;-50
2022/02/01 00:35:21;;;;;;;15.05;3.00;;;;;;;1.75;100.00;101195.53;691607;28;1750;-49
2022/02/01 00:35:47;;;;;;;14.85;3.08;;;;;;;1.71;100.00;101194.53;691141;28;1234;-51
2022/02/01 00:36:21;;;;;;;14.98;3.03;;;;;;;1.69;100.00;101201.31;688731;28;1179;-50
2022/02/01 00:36:50;;;;;;;16.20;3.05;;;;;;;1.66;100.00;101204.66;690564;28;1275;-50
2022/02/01 00:37:16;;;;;;;15.40;2.70;;;;;;;1.67;100.00;101198.66;689291;28;4439;-53
2022/02/01 00:37:49;;;;;;;17.27;3.13;;;;;;;1.59;100.00;101205.19;688528;28;1346;-49
2022/02/01 00:39:30;;;;;;;17.40;3.10;;;;;;;1.62;100.00;101210.50;693044;28;1237;-49
2022/02/01 00:39:44;;;;;;;16.48;3.00;;;;;;;1.67;100.00;101214.13;690959;28;1619;-52
2022/02/01 00:40:11;;;;;;;15.07;2.90;;;;;;;1.65;100.00;101209.75;690414;28;4477;-49
2022/02/01 00:40:33;;;;;;;16.52;3.20;;;;;;;1.64;100.00;101216.59;692366;28;1514;-51
2022/02/01 00:40:56;;;;;;;17.15;3.00;;;;;;;1.59;100.00;101223.25;690053;28;1202;-49
2022/02/01 00:41:18;;;;;;;14.43;2.85;;;;;;;1.73;100.00;101212.63;688933;28;1072;-50
2022/02/01 00:41:47;;;;;;;15.93;3.00;;;;;;;1.79;100.00;101218.03;689040;28;1465;-50
2022/02/01 00:42:10;;;;;;;18.67;3.35;;;;;;;1.78;100.00;101221.44;689331;28;1096;-53
2022/02/01 00:42:30;;;;;;;18.02;3.28;;;;;;;1.77;100.00;101235.13;689791;28;1938;-52
2022/02/01 00:42:51;;;;;;;17.13;3.13;;;;;;;1.85;100.00;101232.03;691210;28;3534;-49
2022/02/01 00:43:12;;;;;;;15.37;3.00;;;;;;;1.80;100.00;101230.09;687413;28;4371;-50
2022/02/01 00:43:33;;;;;;;13.65;2.65;;;;;;;1.76;100.00;101234.25;687920;28;2021;-49
2022/02/01 00:43:53;;;;;;;14.20;2.60;;;;;;;1.72;100.00;101237.53;689375;28;1259;-50
2022/02/01 00:44:16;;;;;;;16.77;2.97;;;;;;;1.68;100.00;101230.50;688405;28;1191;-50
2022/02/01 00:44:38;;;;;;;17.75;2.80;;;;;;;1.66;100.00;101230.44;689712;28;1330;-49
2022/02/01 00:44:58;;;;;;;14.43;2.75;;;;;;;1.64;100.00;101234.63;691083;28;1445;-50
2022/02/01 00:45:19;;;;;;;14.80;2.93;;;;;;;1.63;100.00;101237.16;692120;28;1428;-50
2022/02/01 00:45:39;;;;;;;16.23;3.15;;;;;;;1.63;100.00;101232.00;691081;28;3792;-52
2022/02/01 00:46:02;;;;;;;17.70;3.37;;;;;;;1.64;100.00;101234.63;691011;28;4486;-51
2022/02/01 00:46:22;;;;;;;15.55;2.90;;;;;;;1.65;100.00;101228.66;691692;28;1571;-49
2022/02/01 00:46:43;;;;;;;15.40;2.73;;;;;;;1.65;100.00;101228.66;693844;28;1233;-50
2022/02/01 00:47:05;;;;;;;17.05;3.10;;;;;;;1.64;100.00;101229.47;691436;28;1171;-49
2022/02/01 00:47:25;;;;;;;19.15;3.30;;;;;;;1.63;100.00;101234.56;692304;28;1231;-52
2022/02/01 00:47:46;;;;;;;17.97;3.27;;;;;;;1.62;100.00;101225.97;693447;28;1291;-49
2022/02/01 00:48:06;;;;;;;16.20;3.17;;;;;;;1.59;100.00;101230.97;692324;28;1265;-49
2022/02/01 00:48:27;;;;;;;20.40;3.70;;;;;;;1.55;100.00;101234.25;691509;28;3429;-50
2022/02/01 00:48:47;;;;;;;19.37;3.33;;;;;;;1.52;100.00;101229.88;691780;28;1271;-52
2022/02/01 00:49:08;;;;;;;17.35;3.38;;;;;;;1.51;100.00;101228.09;690910;28;4440;-50
2022/02/01 00:49:29;;;;;;;16.13;3.40;;;;;;;1.51;100.00;101228.09;692900;28;1219;-50
2022/02/01 00:49:49;;;;;;;14.20;3.20;;;;;;;1.51;100.00;101225.53;692536;28;1262;-51
2022/02/01 00:50:15;;;;;;;16.53;3.03;;;;;;;1.59;100.00;101225.81;692371;28;1084;-51
2022/02/01 00:50:36;;;;;;;15.45;2.75;;;;;;;1.60;100.00;101225.00;692296;28;1246;-50
2022/02/01 00:50:57;;;;;;;18.63;3.40;;;;;;;1.56;100.00;101220.53;692849;28;1483;-49
2022/02/01 00:51:21;;;;;;;13.10;3.10;;;;;;;1.62;100.00;101214.75;693268;28;3341;-49
2022/02/01 00:51:42;;;;;;;16.67;2.67;;;;;;;1.63;100.00;101226.84;692086;28;1437;-49
2022/02/01 00:52:04;;;;;;;17.97;3.17;;;;;;;1.62;100.00;101227.66;692134;28;4476;-49
2022/02/01 00:52:26;;;;;;;13.43;2.75;;;;;;;1.63;100.00;101222.56;692442;28;1384;-49
2022/02/01 00:52:47;;;;;;;14.85;2.80;;;;;;;1.63;100.00;101222.56;692674;28;1274;-51
2022/02/01 00:53:07;;;;;;;14.27;2.23;;;;;;;1.65;100.00;101226.09;692114;28;1190;-50
2022/02/01 00:53:30;;;;;;;13.20;2.63;;;;;;;1.66;100.00;101227.84;691106;28;1382;-49
2022/02/01 00:53:51;;;;;;;12.77;3.00;;;;;;;1.64;100.00;101219.16;688284;28;2675;-51
2022/02/01 00:54:11;;;;;;;16.63;2.80;;;;;;;1.75;100.00;101223.88;686251;28;3619;-52
2022/02/01 00:54:32;;;;;;;16.77;2.90;;;;;;;1.82;100.00;101223.31;687718;28;1199;-50
2022/02/01 00:54:52;;;;;;;19.35;3.35;;;;;;;1.80;100.00;101225.84;687628;28;1126;-52
2022/02/01 00:55:13;;;;;;;17.80;2.90;;;;;;;1.73;100.00;101216.09;688927;28;4290;-51
2022/02/01 00:55:33;;;;;;;17.42;2.75;;;;;;;1.73;100.00;101215.19;690877;28;1243;-51
2022/02/01 00:55:55;;;;;;;15.97;2.70;;;;;;;1.68;100.00;101225.34;693029;28;1200;-50
2022/02/01 00:56:16;;;;;;;17.60;2.97;;;;;;;1.65;100.00;101220.06;692277;28;1567;-49
2022/02/01 00:56:36;;;;;;;18.27;3.27;;;;;;;1.66;100.00;101220.13;692153;28;1262;-54
2022/02/01 00:56:57;;;;;;;19.73;3.00;;;;;;;1.69;100.00;101221.94;693006;28;2180;-50
2022/02/01 00:57:18;;;;;;;19.20;2.90;;;;;;;1.69;100.00;101221.94;690484;28;1195;-50
2022/02/01 00:57:38;;;;;;;16.75;2.92;;;;;;;1.68;100.00;101225.34;692715;28;1452;-50
2022/02/01 00:57:59;;;;;;;15.93;2.97;;;;;;;1.66;100.00;101225.28;688293;28;4453;-50
2022/02/01 00:58:20;;;;;;;18.60;3.08;;;;;;;1.67;100.00;101234.75;686893;28;1471;-50
2022/02/01 00:58:41;;;;;;;17.10;2.80;;;;;;;1.65;100.00;101236.41;686732;28;1338;-50
2022/02/01 00:59:01;;;;;;;16.15;2.92;;;;;;;1.64;100.00;101237.19;686545;28;1228;-49
2022/02/01 00:59:22;;;;;;;16.93;3.23;;;;;;;1.64;100.00;101237.19;687187;28;1251;-49
2022/02/01 00:59:43;;;;;;;17.70;3.17;;;;;;;1.64;100.00;101242.34;687509;28;3587;-51
2022/02/01 01:00:09;;;;;;;20.13;3.67;;;;;;;1.65;100.00;101241.56;687099;28;1300;-53
2022/02/01 01:00:29;;;;;;;16.13;3.45;;;;;;;1.65;100.00;101238.97;692788;28;1068;-49
2022/02/01 01:00:50;;;;;;;13.80;2.50;;;;;;;1.69;100.00;101242.56;692710;28;1301;-51
2022/02/01 01:01:12;;;;;;;11.32;2.47;;;;;;;1.78;100.00;101240.34;691262;28;4347;-50
2022/02/01 01:01:32;;;;;;;15.48;2.92;;;;;;;1.79;100.00;101244.69;693155;28;1290;-49
2022/02/01 01:01:53;;;;;;;17.53;3.43;;;;;;;1.77;100.00;101237.69;691271;28;1264;-51
2022/02/01 01:02:16;;;;;;;12.98;3.00;;;;;;;1.76;100.00;101241.09;690360;28;1286;-50
2022/02/01 01:02:38;;;;;;;13.70;3.10;;;;;;;1.75;100.00;101239.34;686538;28;3545;-52
2022/02/01 01:02:58;;;;;;;15.95;3.03;;;;;;;1.72;100.00;101236.63;686755;28;1368;-52
2022/02/01 01:03:18;;;;;;;15.43;3.30;;;;;;;1.69;100.00;101232.25;687170;28;1232;-50
2022/02/01 01:03:39;;;;;;;18.63;3.10;;;;;;;1.66;100.00;101233.00;687647;28;2020;-50
2022/02/01 01:04:00;;;;;;;14.85;2.78;;;;;;;1.65;100.00;101236.41;686750;28;4462;-52
2022/02/01 01:04:20;;;;;;;13.40;2.65;;;;;;;1.62;100.00;101237.94;686746;28;1465;-49
2022/02/01 01:04:41;;;;;;;13.67;3.00;;;;;;;1.59;100.00;101230.09;688797;28;1361;-49
2022/02/01 01:05:02;;;;;;;13.77;2.97;;;;;;;1.82;100.00;101236.19;689404;28;1198;-53
2022/02/01 01:05:23;;;;;;;16.08;2.70;;;;;;;1.90;100.00;101239.97;687907;28;2140;-49
2022/02/01 01:05:43;;;;;;;17.47;2.80;;;;;;;1.88;100.00;101233.84;689922;28;1323;-50
2022/02/01 01:06:04;;;;;;;16.25;2.65;;;;;;;1.84;100.00;101243.19;691415;28;1200;-50
2022/02/01 01:06:25;;;;;;;15.15;2.83;;;;;;;1.91;100.00;101239.16;694049;28;951;-52
2022/02/01 01:06:46;;;;;;;15.70;2.97;;;;;;;1.88;100.00;101239.00;691557;28;1325;-50
2022/02/01 01:07:06;;;;;;;14.82;3.05;;;;;;;1.82;100.00;101238.78;692191;28;4553;-49
2022/02/01 01:07:27;;;;;;;15.67;3.37;;;;;;;1.78;100.00;101242.91;693271;28;1291;-53
2022/02/01 01:07:47;;;;;;;13.75;2.90;;;;;;;1.75;100.00;101242.81;689984;28;1105;-52
2022/02/01 01:08:08;;;;;;;14.63;3.07;;;;;;;1.72;100.00;101239.22;687524;28;3067;-51
2022/02/01 01:08:28;;;;;;;15.27;3.00;;;;;;;1.69;100.00;101243.44;687680;28;3557;-49
2022/02/01 01:08:48;;;;;;;18.13;3.40;;;;;;;1.71;100.00;101235.75;685843;28;1482;-49
2022/02/01 01:09:09;;;;;;;17.38;3.40;;;;;;;1.71;100.00;101233.19;686790;28;1163;-49
2022/02/01 01:09:29;;;;;;;13.23;2.60;;;;;;;1.70;100.00;101229.75;685955;28;1284;-52
2022/02/01 01:09:50;;;;;;;15.05;2.80;;;;;;;1.70;100.00;101236.56;688590;28;1314;-54
2022/02/01 01:10:13;;;;;;;15.90;3.25;;;;;;;1.66;100.00;101226.94;688523;28;4443;-49
2022/02/01 01:10:34;;;;;;;16.08;3.08;;;;;;;1.70;100.00;101234.91;690734;28;1083;-51
2022/02/01 01:10:55;;;;;;;15.88;3.13;;;;;;;1.70;100.00;101227.16;692536;28;2064;-50
2022/02/01 01:11:15;;;;;;;14.87;3.00;;;;;;;1.69;100.00;101221.94;689846;28;2289;-50
2022/02/01 01:11:36;;;;;;;16.90;3.00;;;;;;;1.66;100.00;101220.13;689718;28;1345;-50
2022/02/01 01:11:58;;;;;;;12.38;2.55;;;;;;;1.66;100.00;101221.81;688985;28;1259;-49
2022/02/01 01:12:18;;;;;;;15.57;3.03;;;;;;;1.64;100.00;101216.59;689842;28;1140;-52
2022/02/01 01:12:51;;;;;;;18.17;3.10;;;;;;;1.67;100.00;101218.41;688880;28;1247;-53
2022/02/01 01:13:48;;;;;;;19.13;3.08;;;;;;;1.66;100.00;101221.81;687230;28;4266;-50
2022/02/01 01:15:20;;;;;;;14.18;3.42;;;;;;;1.61;100.00;101223.34;692558;28;1247;-51
2022/02/01 01:15:47;;;;;;;13.88;2.85;;;;;;;1.62;100.00;101231.13;693079;28;2586;-50
2022/02/01 01:38:44;;;;;;;17.25;3.00;;;;;;;1.82;100.00;101259.41;684609;28;4406;-49
2022/02/01 01:43:56;;;;;;;12.46;2.20;;;;;;;1.76;100.00;101266.88;691229;28;1594;-52
2022/02/01 01:44:26;;;;;;;14.13;2.67;;;;;;;1.77;100.00;101266.94;691817;28;1073;-49
2022/02/01 01:44:58;;;;;;;13.13;2.45;;;;;;;1.72;100.00;101267.56;692393;28;1255;-49
2022/02/01 01:45:25;;;;;;;15.70;2.65;;;;;;;1.75;100.00;101258.28;691595;28;3075;-50
2022/02/01 01:53:28;;;;;;;13.88;2.30;;;;;;;1.59;100.00;101243.84;691837;28;2834;-49
2022/02/01 01:53:49;;;;;;;14.07;2.30;;;;;;;1.57;100.00;101250.66;693104;28;4742;-52
2022/02/01 01:54:09;;;;;;;12.83;2.50;;;;;;;1.58;100.00;101254.09;690199;28;1329;-54
2022/02/01 01:54:30;;;;;;;15.65;2.75;;;;;;;1.56;100.00;101251.47;692478;28;1612;-53
2022/02/01 01:54:50;;;;;;;14.45;2.70;;;;;;;1.57;100.00;101260.09;692054;28;1369;-51
2022/02/01 01:55:12;;;;;;;14.10;2.50;;;;;;;1.58;100.00;101262.75;692388;28;4617;-50
2022/02/01 01:55:34;;;;;;;14.98;2.50;;;;;;;1.58;100.00;101259.25;689293;28;1247;-50
2022/02/01 01:55:55;;;;;;;14.93;2.40;;;;;;;1.66;100.00;101263.94;689210;28;1512;-52
2022/02/01 01:56:15;;;;;;;15.05;2.25;;;;;;;1.65;100.00;101261.31;689661;28;3906;-52
2022/02/01 01:56:38;;;;;;;14.48;2.55;;;;;;;1.64;100.00;101268.13;689798;28;4530;-49
2022/02/01 01:56:59;;;;;;;12.82;2.78;;;;;;;1.67;100.00;101264.81;689478;28;1930;-52
2022/02/01 01:57:20;;;;;;;13.40;2.37;;;;;;;1.81;100.00;101257.63;691941;28;1461;-52
2022/02/01 01:57:43;;;;;;;13.07;2.35;;;;;;;1.79;100.00;101260.16;689401;28;1552;-49
2022/02/01 01:58:05;;;;;;;11.50;2.10;;;;;;;1.76;100.00;101259.13;687791;28;4573;-51
2022/02/01 01:58:26;;;;;;;13.95;2.55;;;;;;;1.77;100.00;101253.16;690123;28;1322;-49
2022/02/01 01:58:46;;;;;;;15.80;2.90;;;;;;;1.72;100.00;101254.66;689165;28;1616;-49
2022/02/01 01:59:08;;;;;;;14.53;2.57;;;;;;;1.70;100.00;101257.19;689592;28;2883;-52
2022/02/01 01:59:28;;;;;;;14.82;2.45;;;;;;;1.81;100.00;101253.34;689575;28;4020;-50
2022/02/01 01:59:49;;;;;;;15.80;2.77;;;;;;;1.78;100.00;101255.81;690284;28;1300;-54
2022/02/01 02:00:39;;;;;;;12.55;2.53;;;;;;;1.76;100.00;101254.88;693176;28;1280;-52
2022/02/01 02:01:12;;;;;;;11.77;2.70;;;;;;;1.74;100.00;101255.63;688804;28;4422;-49
2022/02/01 02:01:34;;;;;;;11.65;2.20;;;;;;;1.70;100.00;101252.94;689644;28;1509;-51
2022/02/01 02:01:54;;;;;;;12.23;2.67;;;;;;;1.70;100.00;101250.34;688363;28;3542;-50
2022/02/01 02:02:15;;;;;;;13.83;2.53;;;;;;;1.69;100.00;101258.03;688945;28;4244;-50
2022/02/01 02:02:35;;;;;;;14.40;2.50;;;;;;;1.68;100.00;101257.13;689037;28;1284;-53
2022/02/01 02:02:55;;;;;;;14.82;2.55;;;;;;;1.68;100.00;101257.13;692014;28;1066;-52
2022/02/01 02:03:17;;;;;;;14.50;2.60;;;;;;;1.73;100.00;101259.03;691941;28;1486;-52
2022/02/01 02:03:42;;;;;;;14.85;2.70;;;;;;;1.70;100.00;101262.34;693194;28;1914;-50
2022/02/01 02:04:04;;;;;;;13.32;2.83;;;;;;;1.68;100.00;101261.41;688938;28;4425;-52
2022/02/01 02:04:24;;;;;;;12.68;2.70;;;;;;;1.67;100.00;101268.25;692378;28;1383;-49
2022/02/01 02:04:44;;;;;;;14.33;2.80;;;;;;;1.66;100.00;101269.09;692734;28;3253;-51
2022/02/01 02:05:05;;;;;;;13.45;2.78;;;;;;;1.69;100.00;101271.78;691694;28;4504;-53
2022/02/01 02:05:26;;;;;;;13.93;2.80;;;;;;;1.68;100.00;101272.59;689168;28;2064;-49
2022/02/01 02:05:46;;;;;;;14.77;2.67;;;;;;;1.64;100.00;101278.44;687174;28;1461;-54
2022/02/01 02:06:07;;;;;;;16.48;2.38;;;;;;;1.64;100.00;101280.16;686153;28;1092;-50
2022/02/01 02:06:27;;;;;;;14.20;2.40;;;;;;;1.63;100.00;101279.25;685063;28;1528;-52
2022/02/01 02:06:48;;;;;;;15.88;2.53;;;;;;;1.62;100.00;101282.66;687245;28;1351;-49
2022/02/01 02:07:08;;;;;;;18.70;2.70;;;;;;;1.62;100.00;101272.34;684151;28;4546;-49
2022/02/01 02:07:30;;;;;;;15.18;2.35;;;;;;;1.60;100.00;101273.09;687245;28;1092;-49
2022/02/01 02:07:51;;;;;;;13.68;2.70;;;;;;;1.55;100.00;101275.47;685961;28;4069;-53
2022/02/01 02:08:12;;;;;;;16.40;2.70;;;;;;;1.55;100.00;101269.44;685822;28;4145;-51
2022/02/01 02:08:33;;;;;;;12.77;2.40;;;;;;;1.55;100.00;101270.31;686714;28;2214;-51
2022/02/01 02:08:55;;;;;;;14.00;2.40;;;;;;;1.55;100.00;101270.31;688072;28;1440;-50
2022/02/01 02:09:16;;;;;;;14.45;2.47;;;;;;;1.52;100.00;101267.63;692202;28;1219;-52
2022/02/01 02:09:36;;;;;;;13.13;2.60;;;;;;;1.53;100.00;101271.97;692704;28;1274;-50
2022/02/01 02:09:57;;;;;;;12.20;2.40;;;;;;;1.53;100.00;101269.38;689312;28;4872;-50
2022/02/01 02:10:20;;;;;;;10.90;2.30;;;;;;;1.56;100.00;101271.22;689372;28;1184;-50
2022/02/01 02:11:05;;;;;;;15.07;2.95;;;;;;;1.58;100.00;101257.59;686631;28;3690;-50
2022/02/01 02:11:58;;;;;;;13.80;2.40;;;;;;;1.56;100.00;101266.06;684305;28;1213;-50
2022/02/01 02:12:37;;;;;;;12.02;2.70;;;;;;;1.53;100.00;101267.69;686116;28;1577;-49
2022/02/01 02:14:42;;;;;;;11.95;2.47;;;;;;;1.58;100.00;101288.50;689544;28;1841;-51
2022/02/01 02:15:04;;;;;;;13.75;2.63;;;;;;;1.58;100.00;101287.59;689579;28;2155;-53
2022/02/01 02:15:29;;;;;;;13.02;2.08;;;;;;;1.57;100.00;101294.47;689363;28;1310;-49
2022/02/01 02:15:58;;;;;;;13.60;2.40;;;;;;;1.57;100.00;101294.47;688371;28;1567;-51
2022/02/01 02:16:19;;;;;;;13.02;2.35;;;;;;;1.59;100.00;101297.97;688079;28;5361;-50
2022/02/01 02:16:43;;;;;;;15.65;2.67;;;;;;;1.59;100.00;101294.53;688713;28;1366;-49
2022/02/01 02:17:05;;;;;;;14.40;2.08;;;;;;;1.58;100.00;101293.66;691411;28;1663;-54
2022/02/01 02:17:26;;;;;;;14.57;2.22;;;;;;;1.61;100.00;101295.50;692160;28;1219;-49
2022/02/01 02:17:46;;;;;;;12.90;2.50;;;;;;;1.61;100.00;101280.91;692029;28;1259;-50
2022/02/01 02:18:07;;;;;;;12.43;2.27;;;;;;;1.76;100.00;101282.34;690756;28;1065;-53
2022/02/01 02:18:32;;;;;;;13.05;2.25;;;;;;;1.79;100.00;101274.75;690300;28;1471;-52
2022/02/01 02:18:53;;;;;;;11.60;2.30;;;;;;;1.76;100.00;101269.44;689192;28;3851;-54
2022/02/01 02:19:14;;;;;;;12.00;2.23;;;;;;;1.80;100.00;101277.38;690137;28;4511;-50
2022/02/01 02:19:34;;;;;;;12.35;2.00;;;;;;;1.80;100.00;101276.50;690016;28;4233;-49
2022/02/01 02:19:54;;;;;;;13.68;2.13;;;;;;;1.90;100.00;101270.00;689858;28;1570;-51
2022/02/01 02:20:15;;;;;;;12.23;2.40;;;;;;;1.88;100.00;101275.09;690915;28;1079;-52
2022/02/01 02:20:42;;;;;;;12.73;2.60;;;;;;;1.92;100.00;101278.69;691036;28;1271;-49
2022/02/01 02:21:05;;;;;;;14.32;2.90;;;;;;;1.87;100.00;101275.94;687830;28;1112;-49
2022/02/01 02:21:25;;;;;;;14.18;2.78;;;;;;;1.82;100.00;101275.75;689464;28;1006;-52
2022/02/01 02:21:48;;;;;;;14.23;2.40;;;;;;;1.78;100.00;101271.28;688126;28;1816;-50
2022/02/01 02:22:09;;;;;;;14.38;2.47;;;;;;;1.76;100.00;101279.75;687404;28;4488;-51
2022/02/01 02:22:29;;;;;;;13.27;2.40;;;;;;;1.74;100.00;101271.09;688515;28;1334;-53
2022/02/01 02:22:49;;;;;;;14.03;2.57;;;;;;;1.71;100.00;101271.84;690043;28;1582;-50
2022/02/01 02:23:10;;;;;;;13.82;2.63;;;;;;;1.67;100.00;101270.84;690363;28;1324;-52
2022/02/01 02:23:31;;;;;;;13.17;2.60;;;;;;;1.66;100.00;101279.41;690741;28;1942;-50
2022/02/01 02:23:51;;;;;;;11.68;2.42;;;;;;;1.65;100.00;101277.63;690646;28;1227;-50
2022/02/01 02:24:12;;;;;;;11.38;2.40;;;;;;;1.62;100.00;101272.34;691844;28;1103;-49
2022/02/01 02:24:35;;;;;;;12.07;2.33;;;;;;;1.68;100.00;101276.88;692613;28;3289;-51
2022/02/01 02:24:55;;;;;;;10.95;2.10;;;;;;;1.66;100.00;101271.66;690406;28;4384;-52
2022/02/01 02:25:16;;;;;;;10.43;2.10;;;;;;;1.64;100.00;101275.88;691762;28;1678;-49
2022/02/01 02:25:38;;;;;;;12.18;2.78;;;;;;;1.63;100.00;101279.25;692073;28;1845;-50
2022/02/01 02:26:01;;;;;;;13.98;2.60;;;;;;;1.60;100.00;101284.28;691714;28;1226;-54
2022/02/01 02:26:22;;;;;;;15.18;2.67;;;;;;;1.57;100.00;101279.00;690967;28;1648;-50
2022/02/01 02:26:44;;;;;;;14.57;2.50;;;;;;;1.57;100.00;101273.00;691994;28;1338;-50
2022/02/01 02:27:05;;;;;;;13.90;2.67;;;;;;;1.58;100.00;101282.47;690886;28;1128;-50
2022/02/01 02:27:26;;;;;;;14.52;2.42;;;;;;;1.55;100.00;101280.63;690056;28;3435;-52
2022/02/01 02:27:47;;;;;;;12.57;2.60;;;;;;;1.57;100.00;101280.72;688554;28;4134;-51
2022/02/01 02:28:10;;;;;;;13.17;2.30;;;;;;;1.66;100.00;101281.97;687987;28;4309;-49
2022/02/01 02:28:31;;;;;;;11.65;2.10;;;;;;;1.69;100.00;101273.50;689573;28;1387;-52
2022/02/01 02:28:51;;;;;;;12.63;2.40;;;;;;;1.66;100.00;101283.66;689248;28;1643;-50
2022/02/01 02:29:12;;;;;;;11.85;2.40;;;;;;;1.64;100.00;101282.72;689630;28;1206;-51
2022/02/01 02:29:33;;;;;;;13.02;2.33;;;;;;;1.68;100.00;101289.78;692031;28;1087;-51
2022/02/01 02:29:53;;;;;;;13.20;2.50;;;;;;;1.70;100.00;101282.97;692336;28;1742;-50
2022/02/01 02:30:14;;;;;;;12.63;2.40;;;;;;;1.81;100.00;101286.00;691873;28;1967;-50
2022/02/01 02:30:35;;;;;;;11.73;2.40;;;;;;;1.84;100.00;101286.09;692567;28;3992;-49
2022/02/01 02:30:55;;;;;;;11.98;2.90;;;;;;;1.80;100.00;101286.81;690455;28;4407;-51
2022/02/01 02:31:19;;;;;;;14.17;2.60;;;;;;;1.83;100.00;101281.78;691733;28;1072;-52
2022/02/01 02:31:40;;;;;;;11.13;2.22;;;;;;;1.78;100.00;101280.72;688817;28;1449;-49
2022/02/01 02:32:03;;;;;;;11.50;2.50;;;;;;;1.78;100.00;101280.72;689402;28;1538;-50
2022/02/01 02:32:25;;;;;;;12.50;2.80;;;;;;;1.73;100.00;101277.97;688905;28;1394;-53
2022/02/01 02:32:45;;;;;;;11.70;2.28;;;;;;;1.73;100.00;101274.50;689532;28;1559;-51
2022/02/01 02:33:12;;;;;;;11.63;2.40;;;;;;;1.75;100.00;101273.75;689031;28;3195;-52
2022/02/01 02:33:33;;;;;;;11.93;2.42;;;;;;;1.74;100.00;101273.69;689095;28;1560;-49
2022/02/01 02:33:58;;;;;;;13.38;2.65;;;;;;;1.76;100.00;101275.50;691558;28;1736;-51
2022/02/01 02:34:19;;;;;;;11.55;2.70;;;;;;;1.70;100.00;101260.66;691481;28;4702;-50
2022/02/01 02:34:39;;;;;;;12.60;2.53;;;;;;;1.65;100.00;101262.16;692352;28;1227;-51
2022/02/01 02:35:03;;;;;;;14.00;2.23;;;;;;;1.62;100.00;101267.22;691823;28;1315;-51
2022/02/01 02:35:29;;;;;;;14.02;2.97;;;;;;;1.61;100.00;101265.44;687732;28;1141;-50
2022/02/01 02:35:54;;;;;;;14.52;2.58;;;;;;;1.60;100.00;101267.97;688390;28;1596;-51
2022/02/01 02:36:18;;;;;;;13.55;2.33;;;;;;;1.59;100.00;101272.22;686221;28;2015;-51
2022/02/01 02:36:44;;;;;;;13.35;2.28;;;;;;;1.59;100.00;101277.38;687467;28;1695;-54
2022/02/01 02:37:13;;;;;;;13.93;2.38;;;;;;;1.58;100.00;101273.03;685848;28;4401;-49
2022/02/01 02:37:33;;;;;;;12.93;2.53;;;;;;;1.56;100.00;101274.66;688997;28;1061;-53
2022/02/01 02:37:53;;;;;;;11.02;2.40;;;;;;;1.51;100.00;101277.06;688844;28;1411;-50
2022/02/01 02:38:19;;;;;;;12.40;2.57;;;;;;;1.52;100.00;101285.66;691505;28;1558;-53
2022/02/01 02:38:49;;;;;;;11.48;2.17;;;;;;;1.51;100.00;101283.94;692293;28;1286;-50
2022/02/01 02:39:34;;;;;;;10.35;2.40;;;;;;;1.51;100.00;101283.94;691427;28;3817;-50
2022/02/01 02:40:10;;;;;;;12.70;2.65;;;;;;;1.52;100.00;101283.09;692158;28;1550;-50
2022/02/01 02:40:55;;;;;;;13.63;2.40;;;;;;;1.51;100.00;101295.09;691284;28;4750;-50
2022/02/01 02:45:04;;;;;;;9.52;1.98;;;;;;;1.75;100.00;101296.06;688647;28;4234;-52
2022/02/01 02:45:13;;;;;;;11.15;2.17;;;;;;;1.70;100.00;101285.53;688237;28;1727;-51
2022/02/01 02:45:33;;;;;;;12.38;2.10;;;;;;;1.67;100.00;101285.44;684772;28;1976;-50
2022/02/01 02:45:54;;;;;;;11.23;2.40;;;;;;;1.66;100.00;101288.81;686936;28;1572;-50
2022/02/01 02:46:21;;;;;;;10.43;2.10;;;;;;;1.67;100.00;101288.00;686555;28;4260;-50
2022/02/01 02:46:45;;;;;;;13.18;2.55;;;;;;;1.65;100.00;101287.94;689583;28;1084;-50
2022/02/01 02:47:07;;;;;;;11.82;2.35;;;;;;;1.65;100.00;101289.66;688964;28;1747;-51
2022/02/01 02:47:27;;;;;;;12.65;2.10;;;;;;;1.63;100.00;101289.56;690707;28;3618;-50
2022/02/01 02:47:48;;;;;;;13.67;2.23;;;;;;;1.62;100.00;101286.94;691286;28;1711;-51
2022/02/01 02:48:12;;;;;;;15.63;2.10;;;;;;;1.60;100.00;101286.88;688836;28;1139;-54
2022/02/01 02:48:32;;;;;;;12.32;2.47;;;;;;;1.59;100.00;101282.53;685672;28;1615;-50
2022/02/01 02:48:53;;;;;;;13.65;2.30;;;;;;;1.60;100.00;101283.41;685852;28;1607;-51
2022/02/01 02:49:17;;;;;;;13.10;2.20;;;;;;;1.61;100.00;101280.91;686584;28;4608;-52
2022/02/01 02:49:37;;;;;;;15.63;2.47;;;;;;;1.60;100.00;101286.88;686966;28;1330;-50
2022/02/01 02:49:58;;;;;;;11.73;2.20;;;;;;;1.60;100.00;101294.59;687859;28;1344;-50
2022/02/01 02:50:22;;;;;;;11.27;2.17;;;;;;;1.62;100.00;101284.34;687879;28;3891;-51
2022/02/01 02:50:44;;;;;;;10.18;2.03;;;;;;;1.62;100.00;101287.81;691790;28;1270;-51
2022/02/01 02:51:04;;;;;;;13.80;2.42;;;;;;;1.61;100.00;101293.78;690896;28;1083;-51
2022/02/01 02:51:26;;;;;;;14.93;2.15;;;;;;;1.59;100.00;101287.66;691514;28;1175;-52
2022/02/01 02:51:47;;;;;;;15.98;2.20;;;;;;;1.62;100.00;101286.94;692646;28;1242;-50
2022/02/01 02:52:08;;;;;;;15.63;2.30;;;;;;;1.62;100.00;101289.50;691408;28;4489;-49
2022/02/01 02:52:28;;;;;;;13.93;2.45;;;;;;;1.59;100.00;101294.53;691695;28;1136;-50
2022/02/01 02:52:49;;;;;;;11.67;2.47;;;;;;;1.58;100.00;101285.94;692127;28;1087;-49
2022/02/01 02:53:09;;;;;;;11.95;2.10;;;;;;;1.58;100.00;101291.09;690576;28;3436;-51
2022/02/01 02:53:29;;;;;;;11.83;2.27;;;;;;;1.58;100.00;101298.81;692486;28;1327;-49
2022/02/01 02:53:50;;;;;;;12.18;2.28;;;;;;;1.56;100.00;101287.56;691750;28;1223;-51
2022/02/01 02:54:14;;;;;;;11.23;2.00;;;;;;;1.58;100.00;101290.19;688257;28;1271;-54
2022/02/01 02:54:34;;;;;;;12.27;2.30;;;;;;;1.57;100.00;101294.47;686964;28;1401;-51
2022/02/01 02:54:56;;;;;;;11.90;2.20;;;;;;;1.61;100.00;101291.22;686404;28;4322;-51
2022/02/01 02:55:16;;;;;;;12.25;2.28;;;;;;;1.65;100.00;101289.66;682611;28;1223;-51
2022/02/01 02:55:36;;;;;;;13.35;2.25;;;;;;;1.61;100.00;101291.22;683881;28;1260;-50